createdAt,value
2023-05-05T00:00:04.397Z,100113.78
2023-05-05T00:02:32.413Z,100114.27
2023-05-05T00:04:59.474Z,100115.58
2023-05-05T00:07:26.344Z,100114.55
2023-05-05T00:09:53.198Z,100112.72
2023-05-05T00:12:20.089Z,100116.55
2023-05-05T00:14:46.942Z,100113.53
2023-05-05T00:17:14.205Z,100114.44
2023-05-05T00:19:41.731Z,100115.83
2023-05-05T00:22:08.587Z,100118.09
2023-05-05T00:24:36.141Z,100116.94
2023-05-05T00:27:03.615Z,100117.90
2023-05-05T00:29:30.726Z,100118.67
2023-05-05T00:31:57.864Z,100120.92
2023-05-05T00:34:24.715Z,100116.90
2023-05-05T00:36:51.607Z,100116.94
2023-05-05T00:39:18.424Z,100119.95
2023-05-05T00:41:45.284Z,100120.50
2023-05-05T00:44:12.565Z,100124.86
2023-05-05T00:46:40.691Z,100131.45
2023-05-05T00:49:07.708Z,100131.16
2023-05-05T00:51:34.587Z,100130.77
2023-05-05T00:54:01.499Z,100132.64
2023-05-05T00:56:28.817Z,100119.59
2023-05-05T00:58:55.740Z,100116.75
2023-05-05T01:01:23.194Z,100115.94
2023-05-05T01:03:50.233Z,100114.10
2023-05-05T01:06:28.184Z,100112.57
2023-05-05T01:09:20.339Z,100115.42
2023-05-05T01:12:07.750Z,100122.47
2023-05-05T01:14:39.811Z,100124.82
2023-05-05T01:17:33.774Z,100121.52
2023-05-05T01:20:16.986Z,100117.40
2023-05-05T01:22:47.752Z,100118.10
2023-05-05T01:25:54.143Z,100114.89
2023-05-05T01:28:55.328Z,100108.22
2023-05-05T01:31:52.137Z,100109.14
2023-05-05T01:34:33.177Z,100108.41
2023-05-05T01:37:30.766Z,100113.30
2023-05-05T01:40:04.127Z,100110.05
2023-05-05T01:42:31.179Z,100110.92
2023-05-05T01:44:58.005Z,100119.20
2023-05-05T01:47:24.887Z,100115.27
2023-05-05T01:49:52.237Z,100114.69
2023-05-05T01:52:19.090Z,100116.77
2023-05-05T01:54:46.026Z,100121.55
2023-05-05T01:57:13.657Z,100119.61
2023-05-05T01:59:40.642Z,100118.64
2023-05-05T02:02:09.058Z,100121.14
2023-05-05T02:04:37.226Z,100121.92
2023-05-05T02:07:04.146Z,100120.03
2023-05-05T02:09:31.061Z,100120.69
2023-05-05T02:11:58.486Z,100127.11
2023-05-05T02:14:29.870Z,100125.88
2023-05-05T02:16:57.246Z,100123.65
2023-05-05T02:19:28.729Z,100120.52
2023-05-05T02:21:55.653Z,100119.04
2023-05-05T02:24:22.523Z,100119.66
2023-05-05T02:26:49.436Z,100119.90
2023-05-05T02:29:21.539Z,100110.72
2023-05-05T02:31:51.004Z,100112.69
2023-05-05T02:34:24.240Z,100111.30
2023-05-05T02:36:53.597Z,100114.02
2023-05-05T02:39:25.196Z,100115.98
2023-05-05T02:41:52.306Z,100118.27
2023-05-05T02:44:23.688Z,100120.77
2023-05-05T02:46:51.294Z,100121.52
2023-05-05T02:49:18.389Z,100121.42
2023-05-05T02:51:45.315Z,100122.30
2023-05-05T02:54:19.216Z,100126.24
2023-05-05T02:56:48.787Z,100121.42
2023-05-05T02:59:33.652Z,100125.32
2023-05-05T03:02:18.187Z,100120.94
2023-05-05T03:05:13.363Z,100120.83
2023-05-05T03:07:53.173Z,100127.33
2023-05-05T03:10:22.084Z,100129.83
2023-05-05T03:12:56.144Z,100131.81
2023-05-05T03:15:48.264Z,100135.30
2023-05-05T03:18:17.783Z,100136.11
2023-05-05T03:20:47.803Z,100134.51
2023-05-05T03:23:18.447Z,100136.84
2023-05-05T03:25:47.453Z,100138.04
2023-05-05T03:28:20.518Z,100137.67
2023-05-05T03:30:47.530Z,100136.00
2023-05-05T03:33:15.548Z,100135.98
2023-05-05T03:35:42.511Z,100128.14
2023-05-05T03:38:10.943Z,100127.73
2023-05-05T03:40:44.292Z,100128.05
2023-05-05T03:43:13.813Z,100126.21
2023-05-05T03:45:40.809Z,100121.41
2023-05-05T03:48:09.906Z,100115.55
2023-05-05T03:50:38.439Z,100113.11
2023-05-05T03:53:05.519Z,100114.75
2023-05-05T03:55:32.889Z,100117.58
2023-05-05T03:57:59.954Z,100123.70
2023-05-05T04:00:27.665Z,100135.98
2023-05-05T04:02:55.295Z,100144.44
2023-05-05T04:05:23.136Z,100149.58
2023-05-05T04:07:50.321Z,100151.00
2023-05-05T04:10:17.470Z,100156.27
2023-05-05T04:12:44.429Z,100158.72
2023-05-05T04:15:14.951Z,100159.98
2023-05-05T04:17:42.108Z,100162.38
2023-05-05T04:20:09.767Z,100165.02
2023-05-05T04:22:37.083Z,100166.79
2023-05-05T04:25:04.770Z,100164.31
2023-05-05T04:27:31.735Z,100163.74
2023-05-05T04:29:59.268Z,100160.57
2023-05-05T04:32:27.165Z,100162.08
2023-05-05T04:34:54.739Z,100158.20
2023-05-05T04:37:22.464Z,100159.81
2023-05-05T04:39:53.003Z,100160.29
2023-05-05T04:42:20.311Z,100166.30
2023-05-05T04:44:47.301Z,100166.34
2023-05-05T04:47:14.875Z,100167.62
2023-05-05T04:49:42.250Z,100175.55
2023-05-05T04:52:09.202Z,100177.55
2023-05-05T04:54:37.612Z,100181.14
2023-05-05T04:57:04.474Z,100188.16
2023-05-05T04:59:31.377Z,100191.02
2023-05-05T05:01:58.303Z,100191.37
2023-05-05T05:04:27.181Z,100193.75
2023-05-05T05:06:55.312Z,100191.71
2023-05-05T05:09:23.195Z,100193.38
2023-05-05T05:11:50.101Z,100193.71
2023-05-05T05:14:17.326Z,100197.30
2023-05-05T05:16:44.314Z,100202.96
2023-05-05T05:19:11.313Z,100206.45
2023-05-05T05:21:38.200Z,100212.36
2023-05-05T05:24:05.266Z,100209.54
2023-05-05T05:26:32.680Z,100201.89
2023-05-05T05:28:59.935Z,100195.74
2023-05-05T05:31:27.319Z,100198.79
2023-05-05T05:33:56.287Z,100204.36
2023-05-05T05:36:23.615Z,100203.55
2023-05-05T05:38:53.029Z,100207.98
2023-05-05T05:41:19.897Z,100203.44
2023-05-05T05:43:46.909Z,100197.33
2023-05-05T05:46:13.895Z,100196.46
2023-05-05T05:48:41.935Z,100198.64
2023-05-05T05:51:08.827Z,100196.17
2023-05-05T05:53:35.680Z,100199.04
2023-05-05T05:56:02.655Z,100200.27
2023-05-05T05:58:29.498Z,100203.27
2023-05-05T06:00:59.294Z,100201.33
2023-05-05T06:03:26.904Z,100201.65
2023-05-05T06:05:54.287Z,100202.48
2023-05-05T06:08:24.345Z,100201.38
2023-05-05T06:10:52.924Z,100204.29
2023-05-05T06:13:20.472Z,100205.52
2023-05-05T06:15:49.918Z,100206.41
2023-05-05T06:18:17.660Z,100207.66
2023-05-05T06:20:44.957Z,100201.71
2023-05-05T06:23:13.010Z,100202.92
2023-05-05T06:25:43.392Z,100198.39
2023-05-05T06:28:10.298Z,100196.58
2023-05-05T06:30:37.770Z,100193.36
2023-05-05T06:33:20.025Z,100191.02
2023-05-05T06:36:13.898Z,100193.29
2023-05-05T06:38:40.807Z,100193.85
2023-05-05T06:41:07.763Z,100195.52
2023-05-05T06:43:37.866Z,100195.88
2023-05-05T06:46:07.504Z,100192.49
2023-05-05T06:48:34.354Z,100192.70
2023-05-05T06:51:01.347Z,100190.10
2023-05-05T06:53:28.342Z,100186.95
2023-05-05T06:55:55.165Z,100180.20
2023-05-05T06:58:22.086Z,100179.65
2023-05-05T07:00:48.946Z,100181.64
2023-05-05T07:03:16.100Z,100179.96
2023-05-05T07:05:43.584Z,100179.41
2023-05-05T07:08:11.413Z,100184.02
2023-05-05T07:10:38.345Z,100184.76
2023-05-05T07:13:08.480Z,100183.42
2023-05-05T07:15:35.709Z,100181.53
2023-05-05T07:18:02.715Z,100177.76
2023-05-05T07:20:29.737Z,100182.03
2023-05-05T07:22:56.761Z,100179.45
2023-05-05T07:25:23.683Z,100177.95
2023-05-05T07:27:50.499Z,100178.95
2023-05-05T07:30:18.986Z,100178.08
2023-05-05T07:32:46.768Z,100178.97
2023-05-05T07:35:13.842Z,100174.89
2023-05-05T07:37:40.660Z,100175.92
2023-05-05T07:40:08.790Z,100176.87
2023-05-05T07:42:36.076Z,100180.88
2023-05-05T07:45:03.782Z,100178.50
2023-05-05T07:47:30.709Z,100180.60
2023-05-05T07:49:57.763Z,100184.88
2023-05-05T07:52:37.040Z,100185.86
2023-05-05T07:55:11.866Z,100178.17
2023-05-05T07:57:39.128Z,100181.61
2023-05-05T08:00:07.140Z,100179.45
2023-05-05T08:02:40.458Z,100178.26
2023-05-05T08:05:08.234Z,100182.77
2023-05-05T08:07:36.744Z,100183.77
2023-05-05T08:10:03.796Z,100181.86
2023-05-05T08:12:30.855Z,100180.11
2023-05-05T08:14:57.717Z,100183.10
2023-05-05T08:17:27.116Z,100177.45
2023-05-05T08:19:54.039Z,100176.05
2023-05-05T08:22:24.896Z,100172.80
2023-05-05T08:24:51.872Z,100177.70
2023-05-05T08:27:18.744Z,100179.98
2023-05-05T08:30:11.193Z,100185.16
2023-05-05T08:32:38.785Z,100188.69
2023-05-05T08:35:06.755Z,100188.20
2023-05-05T08:37:34.204Z,100192.65
2023-05-05T08:40:10.139Z,100188.64
2023-05-05T08:42:39.157Z,100183.02
2023-05-05T08:45:10.433Z,100173.93
2023-05-05T08:47:38.302Z,100181.64
2023-05-05T08:50:06.116Z,100180.28
2023-05-05T08:52:45.578Z,100180.98
2023-05-05T08:55:27.977Z,100179.39
2023-05-05T08:57:56.939Z,100176.04
2023-05-05T09:00:24.536Z,100177.80
2023-05-05T09:02:51.555Z,100176.30
2023-05-05T09:05:18.557Z,100176.27
2023-05-05T09:07:46.847Z,100173.23
2023-05-05T09:10:13.721Z,100174.64
2023-05-05T09:12:41.742Z,100176.44
2023-05-05T09:15:09.674Z,100174.38
2023-05-05T09:17:36.950Z,100179.09
2023-05-05T09:20:11.828Z,100177.89
2023-05-05T09:22:43.826Z,100178.31
2023-05-05T09:25:13.264Z,100175.38
2023-05-05T09:27:43.429Z,100170.33
2023-05-05T09:30:14.481Z,100163.81
2023-05-05T09:32:49.017Z,100160.08
2023-05-05T09:35:19.905Z,100158.33
2023-05-05T09:37:47.138Z,100156.31
2023-05-05T09:40:15.805Z,100152.73
2023-05-05T09:42:42.993Z,100151.23
2023-05-05T09:45:19.163Z,100150.95
2023-05-05T09:47:46.955Z,100153.24
2023-05-05T09:50:16.311Z,100148.60
2023-05-05T09:52:46.718Z,100145.69
2023-05-05T09:55:18.386Z,100154.23
2023-05-05T09:57:47.565Z,100152.35
2023-05-05T10:00:18.164Z,100156.11
2023-05-05T10:02:45.410Z,100153.47
2023-05-05T10:05:16.332Z,100146.84
2023-05-05T10:07:44.703Z,100147.09
2023-05-05T10:10:16.584Z,100143.00
2023-05-05T10:12:44.012Z,100138.55
2023-05-05T10:15:12.057Z,100140.77
2023-05-05T10:17:58.381Z,100142.77
2023-05-05T10:20:37.223Z,100140.86
2023-05-05T10:23:06.506Z,100137.70
2023-05-05T10:25:38.682Z,100128.13
2023-05-05T10:28:06.779Z,100128.91
2023-05-05T10:30:37.058Z,100124.08
2023-05-05T10:33:29.523Z,100121.97
2023-05-05T10:35:53.455Z,100120.81
2023-05-05T10:38:20.541Z,100122.73
2023-05-05T10:40:48.796Z,100125.16
2023-05-05T10:43:15.822Z,100127.05
2023-05-05T10:45:42.865Z,100123.78
2023-05-05T10:48:13.161Z,100115.63
2023-05-05T10:50:41.835Z,100118.03
2023-05-05T10:53:26.177Z,100118.19
2023-05-05T10:56:04.535Z,100116.81
2023-05-05T10:58:47.030Z,100111.97
2023-05-05T11:01:32.743Z,100113.09
2023-05-05T11:04:22.651Z,100102.64
2023-05-05T11:07:10.289Z,100103.23
2023-05-05T11:09:54.031Z,100107.33
2023-05-05T11:12:21.125Z,100107.23
2023-05-05T11:14:48.009Z,100110.73
2023-05-05T11:17:46.823Z,100103.42
2023-05-05T11:20:13.860Z,100099.84
2023-05-05T11:23:02.262Z,100099.05
2023-05-05T11:25:35.588Z,100096.86
2023-05-05T11:28:16.573Z,100094.91
2023-05-05T11:31:15.617Z,100091.98
2023-05-05T11:33:42.574Z,100097.41
2023-05-05T11:36:14.129Z,100091.44
2023-05-05T11:39:02.670Z,100093.90
2023-05-05T11:41:32.684Z,100093.97
2023-05-05T11:44:19.381Z,100087.25
2023-05-05T11:46:52.517Z,100083.23
2023-05-05T11:49:36.062Z,100085.95
2023-05-05T11:52:07.370Z,100081.91
2023-05-05T11:54:41.582Z,100075.46
2023-05-05T11:57:09.250Z,100069.94
2023-05-05T11:59:38.864Z,100077.14
2023-05-05T12:02:10.490Z,100074.91
2023-05-05T12:04:39.589Z,100065.73
2023-05-05T12:07:06.695Z,100072.42
2023-05-05T12:09:33.632Z,100068.05
2023-05-05T12:12:01.444Z,100069.71
2023-05-05T12:14:29.134Z,100062.92
2023-05-05T12:16:56.885Z,100063.86
2023-05-05T12:19:24.426Z,100059.07
2023-05-05T12:21:54.292Z,100058.83
2023-05-05T12:24:21.137Z,100053.27
2023-05-05T12:26:48.010Z,100054.50
2023-05-05T12:29:17.675Z,100047.45
2023-05-05T12:31:44.591Z,100047.66
2023-05-05T12:34:11.621Z,100048.18
2023-05-05T12:36:38.988Z,100046.55
2023-05-05T12:39:06.520Z,100047.86
2023-05-05T12:41:33.521Z,100041.56
2023-05-05T12:44:01.621Z,100039.88
2023-05-05T12:46:32.029Z,100036.91
2023-05-05T12:49:06.581Z,100038.30
2023-05-05T12:51:36.870Z,100039.17
2023-05-05T12:54:13.062Z,100035.95
2023-05-05T12:56:44.312Z,100029.05
2023-05-05T12:59:32.197Z,100027.73
2023-05-05T13:02:02.694Z,100022.20
2023-05-05T13:04:29.752Z,100024.42
2023-05-05T13:07:13.715Z,100025.43
2023-05-05T13:09:40.966Z,100024.26
2023-05-05T13:12:13.946Z,100025.72
2023-05-05T13:14:41.278Z,100028.58
2023-05-05T13:17:08.589Z,100030.49
2023-05-05T13:19:42.671Z,100031.41
2023-05-05T13:22:13.069Z,100026.04
2023-05-05T13:24:51.913Z,100026.22
2023-05-05T13:27:20.212Z,100019.19
2023-05-05T13:29:47.880Z,100019.25
2023-05-05T13:32:14.856Z,100021.29
2023-05-05T13:34:43.628Z,100011.71
2023-05-05T13:37:10.575Z,100011.19
2023-05-05T13:39:37.711Z,100016.66
2023-05-05T13:42:04.833Z,100015.56
2023-05-05T13:44:32.075Z,100016.57
2023-05-05T13:46:59.294Z,100016.28
2023-05-05T13:49:27.189Z,100020.61
2023-05-05T13:51:55.278Z,100018.06
2023-05-05T13:54:22.162Z,100015.63
2023-05-05T13:56:48.983Z,100015.15
2023-05-05T13:59:15.920Z,100018.35
2023-05-05T14:01:44.229Z,100018.27
2023-05-05T14:04:11.138Z,100018.52
2023-05-05T14:06:38.096Z,100018.91
2023-05-05T14:09:06.452Z,100014.04
2023-05-05T14:11:33.643Z,100010.73
2023-05-05T14:14:00.897Z,100005.64
2023-05-05T14:16:27.843Z,100002.70
2023-05-05T14:18:54.711Z,100007.44
2023-05-05T14:21:21.649Z,100006.97
2023-05-05T14:23:51.613Z,100007.99
2023-05-05T14:26:18.498Z,100008.10
2023-05-05T14:28:49.937Z,100004.25
2023-05-05T14:31:17.990Z,99998.33
2023-05-05T14:33:44.852Z,99996.57
2023-05-05T14:36:11.746Z,99994.30
2023-05-05T14:38:38.665Z,99990.48
2023-05-05T14:41:08.843Z,99991.73
2023-05-05T14:43:38.854Z,99989.67
2023-05-05T14:46:07.026Z,99992.06
2023-05-05T14:49:02.330Z,99985.40
2023-05-05T14:51:29.359Z,99985.00
2023-05-05T14:54:48.138Z,99980.73
2023-05-05T14:57:15.017Z,99984.96
2023-05-05T14:59:41.815Z,99984.98
2023-05-05T15:02:12.041Z,99987.11
2023-05-05T15:04:38.855Z,99986.71
2023-05-05T15:07:05.962Z,99985.98
2023-05-05T15:09:32.842Z,99983.10
2023-05-05T15:11:59.686Z,99985.46
2023-05-05T15:14:26.647Z,99986.14
2023-05-05T15:16:53.459Z,99991.39
2023-05-05T15:19:20.390Z,99994.21
2023-05-05T15:21:53.201Z,99994.77
2023-05-05T15:24:20.986Z,99994.06
2023-05-05T15:26:47.989Z,99989.08
2023-05-05T15:29:16.612Z,99989.17
2023-05-05T15:31:43.713Z,99991.45
2023-05-05T15:34:10.650Z,99993.68
2023-05-05T15:36:37.415Z,99992.19
2023-05-05T15:39:04.633Z,99993.91
2023-05-05T15:41:34.766Z,99996.27
2023-05-05T15:44:03.268Z,99998.32
2023-05-05T15:46:33.726Z,99994.48
2023-05-05T15:49:00.678Z,100000.06
2023-05-05T15:51:27.655Z,100000.55
2023-05-05T15:53:54.601Z,100002.67
2023-05-05T15:56:21.523Z,100003.41
2023-05-05T15:58:48.393Z,100006.05
2023-05-05T16:01:15.364Z,100004.06
2023-05-05T16:03:42.309Z,100001.42
2023-05-05T16:06:11.916Z,99996.81
2023-05-05T16:08:38.984Z,99997.83
2023-05-05T16:11:05.854Z,99998.84
2023-05-05T16:13:32.685Z,99999.36
2023-05-05T16:15:59.616Z,99999.06
2023-05-05T16:18:26.930Z,100000.42
2023-05-05T16:20:53.873Z,100004.30
2023-05-05T16:23:20.929Z,100007.84
2023-05-05T16:25:47.849Z,100011.73
2023-05-05T16:28:14.702Z,100008.95
2023-05-05T16:30:43.185Z,100006.08
2023-05-05T16:33:10.163Z,100007.20
2023-05-05T16:35:37.138Z,100010.19
2023-05-05T16:38:04.245Z,100007.30
2023-05-05T16:40:31.100Z,100011.98
2023-05-05T16:42:58.010Z,100016.89
2023-05-05T16:45:24.885Z,100016.42
2023-05-05T16:47:51.732Z,100014.34
2023-05-05T16:50:18.743Z,100020.23
2023-05-05T16:52:45.684Z,100023.50
2023-05-05T16:55:12.722Z,100025.10
2023-05-05T16:57:39.621Z,100028.90
2023-05-05T17:00:07.203Z,100031.14
2023-05-05T17:02:35.439Z,100031.17
2023-05-05T17:05:02.875Z,100031.67
2023-05-05T17:07:29.761Z,100033.07
2023-05-05T17:09:59.802Z,100037.27
2023-05-05T17:12:26.637Z,100041.64
2023-05-05T17:14:53.673Z,100038.48
2023-05-05T17:19:47.693Z,100041.13
2023-05-05T17:22:14.591Z,100040.29
2023-05-05T17:24:41.473Z,100042.25
2023-05-05T17:27:08.761Z,100047.92
2023-05-05T17:29:40.957Z,100050.61
2023-05-05T17:32:11.117Z,100051.64
2023-05-05T17:37:29.596Z,100057.16
2023-05-05T17:39:56.655Z,100052.27
2023-05-05T17:42:23.894Z,100059.86
2023-05-05T17:44:50.910Z,100058.21
2023-05-05T17:47:22.549Z,100062.86
2023-05-05T17:49:49.587Z,100064.95
2023-05-05T17:52:16.536Z,100066.28
2023-05-05T17:54:43.757Z,100067.91
2023-05-05T17:57:10.624Z,100068.55
2023-05-05T17:59:37.683Z,100067.45
2023-05-05T18:02:04.712Z,100066.73
2023-05-05T18:04:32.968Z,100069.94
2023-05-05T18:07:03.335Z,100066.60
2023-05-05T18:09:30.147Z,100070.66
2023-05-05T18:11:57.437Z,100077.48
2023-05-05T18:14:24.850Z,100074.82
2023-05-05T18:16:52.567Z,100079.58
2023-05-05T18:19:20.953Z,100082.85
2023-05-05T18:21:48.978Z,100084.04
2023-05-05T18:24:20.381Z,100086.84
2023-05-05T18:26:51.869Z,100081.27
2023-05-05T18:29:19.432Z,100085.41
2023-05-05T18:31:48.761Z,100087.12
2023-05-05T18:34:17.041Z,100088.89
2023-05-05T18:36:44.169Z,100091.02
2023-05-05T18:39:11.578Z,100090.75
2023-05-05T18:41:38.661Z,100090.23
2023-05-05T18:44:05.574Z,100091.02
2023-05-05T18:46:32.698Z,100093.03
2023-05-05T18:49:00.747Z,100093.08
2023-05-05T18:51:28.804Z,100095.41
2023-05-05T18:53:55.803Z,100093.81
2023-05-05T18:56:22.808Z,100096.45
2023-05-05T18:58:49.811Z,100096.34
2023-05-05T19:01:17.279Z,100091.29
2023-05-05T19:03:48.210Z,100092.45
2023-05-05T19:06:16.139Z,100092.09
2023-05-05T19:08:43.998Z,100093.91
2023-05-05T19:11:11.041Z,100098.94
2023-05-05T19:16:11.726Z,100097.88
2023-05-05T19:18:39.407Z,100097.05
2023-05-05T19:21:06.456Z,100100.92
2023-05-05T19:23:33.637Z,100101.52
2023-05-05T19:26:00.895Z,100102.61
2023-05-05T19:28:27.796Z,100107.54
2023-05-05T19:30:54.811Z,100103.70
2023-05-05T19:33:22.161Z,100102.41
2023-05-05T19:35:49.147Z,100107.35
2023-05-05T19:38:16.265Z,100108.04
2023-05-05T19:40:43.259Z,100105.84
2023-05-05T19:43:10.213Z,100106.75
2023-05-05T19:45:37.295Z,100106.12
2023-05-05T19:48:04.467Z,100108.00
2023-05-05T19:50:31.806Z,100112.66
2023-05-05T19:52:58.907Z,100109.11
2023-05-05T19:55:26.045Z,100107.20
2023-05-05T19:57:53.095Z,100103.59
2023-05-05T20:00:20.096Z,100103.25
2023-05-05T20:02:49.267Z,100105.80
2023-05-05T20:05:17.921Z,100108.08
2023-05-05T20:07:46.498Z,100111.63
2023-05-05T20:10:13.714Z,100109.21
2023-05-05T20:12:50.811Z,100108.51
2023-05-05T20:15:19.411Z,100114.13
2023-05-05T20:17:49.832Z,100115.05
2023-05-05T20:20:18.966Z,100114.53
2023-05-05T20:22:46.517Z,100115.00
2023-05-05T20:25:15.384Z,100116.86
2023-05-05T20:27:42.740Z,100122.08
2023-05-05T20:30:10.915Z,100125.17
2023-05-05T20:32:38.259Z,100118.64
2023-05-05T20:35:08.665Z,100125.13
2023-05-05T20:37:35.550Z,100122.11
2023-05-05T20:40:04.486Z,100126.16
2023-05-05T20:42:31.708Z,100125.08
2023-05-05T20:45:00.675Z,100124.80
2023-05-05T20:47:27.642Z,100127.15
2023-05-05T20:49:54.520Z,100126.08
2023-05-05T20:52:21.465Z,100126.86
2023-05-05T20:54:50.923Z,100127.91
2023-05-05T20:57:18.164Z,100130.05
2023-05-05T20:59:45.188Z,100138.04
2023-05-05T21:02:12.366Z,100154.14
2023-05-05T21:04:39.472Z,100155.20
2023-05-05T21:07:06.696Z,100155.61
2023-05-05T21:09:35.462Z,100157.70
2023-05-05T21:12:02.579Z,100156.14
2023-05-05T21:14:29.675Z,100156.73
2023-05-05T21:16:56.810Z,100159.21
2023-05-05T21:19:23.964Z,100159.99
2023-05-05T21:21:51.324Z,100160.70
2023-05-05T21:24:18.394Z,100161.90
2023-05-05T21:26:45.519Z,100165.96
2023-05-05T21:29:12.426Z,100165.84
2023-05-05T21:31:39.430Z,100167.76
2023-05-05T21:34:06.392Z,100165.41
2023-05-05T21:36:34.103Z,100167.45
2023-05-05T21:39:01.289Z,100170.40
2023-05-05T21:41:28.402Z,100174.00
2023-05-05T21:43:55.813Z,100178.46
2023-05-05T21:46:22.857Z,100172.64
2023-05-05T21:48:50.112Z,100174.13
2023-05-05T21:51:17.535Z,100171.58
2023-05-05T21:53:44.512Z,100171.91
2023-05-05T21:56:11.430Z,100173.27
2023-05-05T21:58:38.403Z,100172.05
2023-05-05T22:01:05.603Z,100170.83
2023-05-05T22:03:34.305Z,100179.21
2023-05-05T22:06:01.415Z,100183.12
2023-05-05T22:08:28.392Z,100178.71
2023-05-05T22:10:55.295Z,100183.91
2023-05-05T22:13:22.374Z,100184.30
2023-05-05T22:15:49.423Z,100183.39
2023-05-05T22:18:16.376Z,100183.67
2023-05-05T22:20:47.042Z,100193.36
2023-05-05T22:23:14.241Z,100194.98
2023-05-05T22:25:41.204Z,100194.45
2023-05-05T22:28:08.196Z,100192.84
2023-05-05T22:30:35.210Z,100192.75
2023-05-05T22:33:02.182Z,100193.77
2023-05-05T22:35:29.110Z,100195.13
2023-05-05T22:37:56.124Z,100195.51
2023-05-05T22:40:23.030Z,100195.78
2023-05-05T22:42:49.969Z,100198.73
2023-05-05T22:45:16.832Z,100198.73
2023-05-05T22:47:44.332Z,100203.31
2023-05-05T22:50:11.373Z,100204.29
2023-05-05T22:52:38.248Z,100202.78
2023-05-05T22:55:05.530Z,100204.77
2023-05-05T22:57:34.612Z,100203.84
2023-05-05T23:00:02.893Z,100201.62
2023-05-05T23:02:29.923Z,100200.42
2023-05-05T23:04:56.934Z,100205.65
2023-05-05T23:07:23.933Z,100201.62
2023-05-05T23:09:50.839Z,100202.47
2023-05-05T23:12:18.062Z,100205.76
2023-05-05T23:14:44.927Z,100207.04
2023-05-05T23:17:11.888Z,100203.95
2023-05-05T23:19:38.795Z,100206.05
2023-05-05T23:22:06.023Z,100204.05
2023-05-05T23:24:32.957Z,100205.01
2023-05-05T23:27:02.301Z,100206.98
2023-05-05T23:29:29.397Z,100209.09
2023-05-05T23:31:56.985Z,100209.98
2023-05-05T23:34:23.948Z,100208.80
2023-05-05T23:36:50.853Z,100218.86
2023-05-05T23:39:17.814Z,100219.33
2023-05-05T23:41:44.742Z,100216.61
2023-05-05T23:44:11.559Z,100218.67
2023-05-05T23:46:38.466Z,100216.30
2023-05-05T23:49:05.457Z,100218.39
2023-05-05T23:51:32.455Z,100221.50
2023-05-05T23:53:59.643Z,100219.23
2023-05-05T23:56:26.945Z,100221.39
2023-05-05T23:58:54.010Z,100217.92
